sensor_id;sensor_type;location;lat;lon;timestamp;temperature;humidity
22081;DHT22;11207;59.512;18.050;2023-04-01T00:00:32;-5.90;99.90
22081;DHT22;11207;59.512;18.050;2023-04-01T00:02:57;-5.80;99.90
22081;DHT22;11207;59.512;18.050;2023-04-01T00:05:23;-5.90;99.90
22081;DHT22;11207;59.512;18.050;2023-04-01T00:07:50;-5.90;99.90
22081;DHT22;11207;59.512;18.050;2023-04-01T00:10:16;-5.90;99.90
22081;DHT22;11207;59.512;18.050;2023-04-01T00:12:42;-5.80;99.90
22081;DHT22;11207;59.512;18.050;2023-04-01T00:15:10;-5.90;99.90
22081;DHT22;11207;59.512;18.050;2023-04-01T00:17:36;-5.90;99.90
22081;DHT22;11207;59.512;18.050;2023-04-01T00:20:02;-5.90;99.90
22081;DHT22;11207;59.512;18.050;2023-04-01T00:22:28;-5.80;99.90
22081;DHT22;11207;59.512;18.050;2023-04-01T00:24:54;-5.90;99.90
22081;DHT22;11207;59.512;18.050;2023-04-01T00:27:20;-5.90;99.90
22081;DHT22;11207;59.512;18.050;2023-04-01T00:29:48;-5.70;99.90
22081;DHT22;11207;59.512;18.050;2023-04-01T00:32:14;-6.00;99.90
22081;DHT22;11207;59.512;18.050;2023-04-01T00:34:40;-6.00;99.90
22081;DHT22;11207;59.512;18.050;2023-04-01T00:37:10;-6.10;99.90
22081;DHT22;11207;59.512;18.050;2023-04-01T00:39:36;-6.10;99.90
22081;DHT22;11207;59.512;18.050;2023-04-01T00:42:03;-6.20;99.90
22081;DHT22;11207;59.512;18.050;2023-04-01T00:44:31;-6.20;99.90
22081;DHT22;11207;59.512;18.050;2023-04-01T00:47:01;-6.30;99.90
22081;DHT22;11207;59.512;18.050;2023-04-01T00:49:33;-6.20;99.90
22081;DHT22;11207;59.512;18.050;2023-04-01T00:52:02;-6.20;99.90
22081;DHT22;11207;59.512;18.050;2023-04-01T00:54:32;-6.30;99.90
22081;DHT22;11207;59.512;18.050;2023-04-01T00:57:02;-6.20;99.90
22081;DHT22;11207;59.512;18.050;2023-04-01T00:59:45;-6.10;99.90
22081;DHT22;11207;59.512;18.050;2023-04-01T01:02:13;-6.30;99.90
22081;DHT22;11207;59.512;18.050;2023-04-01T01:04:40;-6.30;99.90
22081;DHT22;11207;59.512;18.050;2023-04-01T01:07:12;-6.20;99.90
22081;DHT22;11207;59.512;18.050;2023-04-01T01:12:25;-6.30;99.90
22081;DHT22;11207;59.512;18.050;2023-04-01T01:26:10;-6.30;99.90
22081;DHT22;11207;59.512;18.050;2023-04-01T01:28:52;-6.40;99.90
22081;DHT22;11207;59.512;18.050;2023-04-01T01:31:38;-6.40;99.90
22081;DHT22;11207;59.512;18.050;2023-04-01T01:34:19;-6.40;99.90
22081;DHT22;11207;59.512;18.050;2023-04-01T01:36:53;-6.40;99.90
22081;DHT22;11207;59.512;18.050;2023-04-01T01:39:20;-6.40;99.90
22081;DHT22;11207;59.512;18.050;2023-04-01T01:41:52;-6.40;99.90
22081;DHT22;11207;59.512;18.050;2023-04-01T01:44:19;-6.40;99.90
22081;DHT22;11207;59.512;18.050;2023-04-01T01:46:47;-6.40;99.90
22081;DHT22;11207;59.512;18.050;2023-04-01T01:49:14;-6.50;99.90
22081;DHT22;11207;59.512;18.050;2023-04-01T01:51:41;-6.50;99.90
22081;DHT22;11207;59.512;18.050;2023-04-01T01:54:16;-6.60;99.90
22081;DHT22;11207;59.512;18.050;2023-04-01T01:56:45;-6.60;99.90
22081;DHT22;11207;59.512;18.050;2023-04-01T01:59:14;-6.60;99.90
22081;DHT22;11207;59.512;18.050;2023-04-01T02:01:43;-6.50;99.90
22081;DHT22;11207;59.512;18.050;2023-04-01T02:04:12;-6.60;99.90
22081;DHT22;11207;59.512;18.050;2023-04-01T02:06:44;-6.70;99.90
22081;DHT22;11207;59.512;18.050;2023-04-01T02:09:12;-6.60;99.90
22081;DHT22;11207;59.512;18.050;2023-04-01T02:14:23;-6.70;99.90
22081;DHT22;11207;59.512;18.050;2023-04-01T02:17:11;-6.70;99.90
22081;DHT22;11207;59.512;18.050;2023-04-01T02:22:20;-6.70;99.90
22081;DHT22;11207;59.512;18.050;2023-04-01T02:24:48;-6.70;99.90
22081;DHT22;11207;59.512;18.050;2023-04-01T02:27:14;-6.70;99.90
22081;DHT22;11207;59.512;18.050;2023-04-01T02:29:40;-6.70;99.90
22081;DHT22;11207;59.512;18.050;2023-04-01T02:32:07;-6.70;99.90
22081;DHT22;11207;59.512;18.050;2023-04-01T02:34:33;-6.70;99.90
22081;DHT22;11207;59.512;18.050;2023-04-01T02:37:00;-6.80;99.90
22081;DHT22;11207;59.512;18.050;2023-04-01T02:39:26;-6.80;99.90
22081;DHT22;11207;59.512;18.050;2023-04-01T02:41:53;-6.80;99.90
22081;DHT22;11207;59.512;18.050;2023-04-01T02:44:18;-6.80;99.90
22081;DHT22;11207;59.512;18.050;2023-04-01T02:46:44;-6.80;99.90
22081;DHT22;11207;59.512;18.050;2023-04-01T02:49:10;-6.80;99.90
22081;DHT22;11207;59.512;18.050;2023-04-01T02:51:36;-6.80;99.90
22081;DHT22;11207;59.512;18.050;2023-04-01T02:54:02;-6.80;99.90
22081;DHT22;11207;59.512;18.050;2023-04-01T02:56:28;-6.80;99.90
22081;DHT22;11207;59.512;18.050;2023-04-01T02:58:54;-6.80;99.90
22081;DHT22;11207;59.512;18.050;2023-04-01T03:01:20;-6.80;99.90
22081;DHT22;11207;59.512;18.050;2023-04-01T03:03:46;-6.90;99.90
22081;DHT22;11207;59.512;18.050;2023-04-01T03:06:14;-6.90;99.90
22081;DHT22;11207;59.512;18.050;2023-04-01T03:08:39;-6.80;99.90
22081;DHT22;11207;59.512;18.050;2023-04-01T03:11:05;-6.90;99.90
22081;DHT22;11207;59.512;18.050;2023-04-01T03:13:32;-6.90;99.90
22081;DHT22;11207;59.512;18.050;2023-04-01T03:15:57;-6.90;99.90
22081;DHT22;11207;59.512;18.050;2023-04-01T03:18:23;-6.90;99.90
22081;DHT22;11207;59.512;18.050;2023-04-01T03:20:49;-6.90;99.90
22081;DHT22;11207;59.512;18.050;2023-04-01T03:23:15;-6.90;99.90
22081;DHT22;11207;59.512;18.050;2023-04-01T03:25:42;-6.90;99.90
22081;DHT22;11207;59.512;18.050;2023-04-01T03:28:11;-6.90;99.90
22081;DHT22;11207;59.512;18.050;2023-04-01T03:30:38;-6.80;99.90
22081;DHT22;11207;59.512;18.050;2023-04-01T03:33:04;-6.80;99.90
22081;DHT22;11207;59.512;18.050;2023-04-01T03:35:30;-6.90;99.90
22081;DHT22;11207;59.512;18.050;2023-04-01T03:37:56;-6.80;99.90
22081;DHT22;11207;59.512;18.050;2023-04-01T03:40:23;-6.70;99.90
22081;DHT22;11207;59.512;18.050;2023-04-01T03:42:49;-6.70;99.90
22081;DHT22;11207;59.512;18.050;2023-04-01T03:45:15;-6.70;99.90
22081;DHT22;11207;59.512;18.050;2023-04-01T03:47:41;-6.90;99.90
22081;DHT22;11207;59.512;18.050;2023-04-01T03:50:07;-6.70;99.90
22081;DHT22;11207;59.512;18.050;2023-04-01T03:52:34;-6.80;99.90
22081;DHT22;11207;59.512;18.050;2023-04-01T03:55:00;-6.80;99.90
22081;DHT22;11207;59.512;18.050;2023-04-01T03:57:26;-6.80;99.90
22081;DHT22;11207;59.512;18.050;2023-04-01T03:59:52;-6.80;99.90
22081;DHT22;11207;59.512;18.050;2023-04-01T04:02:18;-6.80;99.90
22081;DHT22;11207;59.512;18.050;2023-04-01T04:04:44;-6.70;99.90
22081;DHT22;11207;59.512;18.050;2023-04-01T04:07:11;-6.80;99.90
22081;DHT22;11207;59.512;18.050;2023-04-01T04:09:37;-6.70;99.90
22081;DHT22;11207;59.512;18.050;2023-04-01T04:12:03;-6.80;99.90
22081;DHT22;11207;59.512;18.050;2023-04-01T04:14:30;-6.70;99.90
22081;DHT22;11207;59.512;18.050;2023-04-01T04:16:56;-6.80;99.90
22081;DHT22;11207;59.512;18.050;2023-04-01T04:19:22;-6.70;99.90
22081;DHT22;11207;59.512;18.050;2023-04-01T04:21:48;-6.70;99.90
22081;DHT22;11207;59.512;18.050;2023-04-01T04:24:13;-6.70;99.90
22081;DHT22;11207;59.512;18.050;2023-04-01T04:26:39;-6.60;99.90
22081;DHT22;11207;59.512;18.050;2023-04-01T04:29:05;-6.60;99.90
22081;DHT22;11207;59.512;18.050;2023-04-01T04:31:30;-6.50;99.90
22081;DHT22;11207;59.512;18.050;2023-04-01T04:33:56;-6.60;99.90
22081;DHT22;11207;59.512;18.050;2023-04-01T04:36:23;-6.50;99.90
22081;DHT22;11207;59.512;18.050;2023-04-01T04:38:49;-6.60;99.90
22081;DHT22;11207;59.512;18.050;2023-04-01T04:41:16;-6.60;99.90
22081;DHT22;11207;59.512;18.050;2023-04-01T04:43:49;-6.60;99.90
22081;DHT22;11207;59.512;18.050;2023-04-01T04:46:15;-6.60;99.90
22081;DHT22;11207;59.512;18.050;2023-04-01T04:48:41;-6.70;99.90
22081;DHT22;11207;59.512;18.050;2023-04-01T04:51:06;-6.60;99.90
22081;DHT22;11207;59.512;18.050;2023-04-01T04:53:32;-6.60;99.90
22081;DHT22;11207;59.512;18.050;2023-04-01T04:55:58;-6.60;99.90
22081;DHT22;11207;59.512;18.050;2023-04-01T04:58:23;-6.60;99.90
22081;DHT22;11207;59.512;18.050;2023-04-01T05:00:49;-6.30;99.90
22081;DHT22;11207;59.512;18.050;2023-04-01T05:03:15;-6.60;99.90
22081;DHT22;11207;59.512;18.050;2023-04-01T05:05:48;-6.50;99.90
22081;DHT22;11207;59.512;18.050;2023-04-01T05:08:14;-6.50;99.90
22081;DHT22;11207;59.512;18.050;2023-04-01T05:10:40;-6.40;99.90
22081;DHT22;11207;59.512;18.050;2023-04-01T05:13:06;-6.40;99.90
22081;DHT22;11207;59.512;18.050;2023-04-01T05:15:32;-6.50;99.90
22081;DHT22;11207;59.512;18.050;2023-04-01T05:17:58;-6.40;99.90
22081;DHT22;11207;59.512;18.050;2023-04-01T05:20:23;-6.40;99.90
22081;DHT22;11207;59.512;18.050;2023-04-01T05:22:50;-6.30;99.90
22081;DHT22;11207;59.512;18.050;2023-04-01T05:25:15;-6.40;99.90
22081;DHT22;11207;59.512;18.050;2023-04-01T05:27:41;-6.40;99.90
22081;DHT22;11207;59.512;18.050;2023-04-01T05:30:07;-6.40;99.90
22081;DHT22;11207;59.512;18.050;2023-04-01T05:32:33;-6.40;99.90
22081;DHT22;11207;59.512;18.050;2023-04-01T05:34:58;-6.30;99.90
22081;DHT22;11207;59.512;18.050;2023-04-01T05:37:24;-6.20;99.90
22081;DHT22;11207;59.512;18.050;2023-04-01T05:39:49;-6.20;99.90
22081;DHT22;11207;59.512;18.050;2023-04-01T05:42:15;-6.20;99.90
22081;DHT22;11207;59.512;18.050;2023-04-01T05:44:41;-6.20;99.90
22081;DHT22;11207;59.512;18.050;2023-04-01T05:47:07;-6.10;99.90
22081;DHT22;11207;59.512;18.050;2023-04-01T05:49:33;-6.00;99.90
22081;DHT22;11207;59.512;18.050;2023-04-01T05:51:58;-6.00;99.90
22081;DHT22;11207;59.512;18.050;2023-04-01T05:54:24;-5.90;99.90
22081;DHT22;11207;59.512;18.050;2023-04-01T05:56:50;-5.90;99.90
22081;DHT22;11207;59.512;18.050;2023-04-01T05:59:16;-5.70;99.90
22081;DHT22;11207;59.512;18.050;2023-04-01T06:01:41;-5.70;99.90
22081;DHT22;11207;59.512;18.050;2023-04-01T06:04:13;-5.70;99.90
22081;DHT22;11207;59.512;18.050;2023-04-01T06:06:39;-5.50;99.90
22081;DHT22;11207;59.512;18.050;2023-04-01T06:09:26;-5.40;99.90
22081;DHT22;11207;59.512;18.050;2023-04-01T06:20:43;-4.70;99.90
22081;DHT22;11207;59.512;18.050;2023-04-01T06:26:11;-4.50;99.90
22081;DHT22;11207;59.512;18.050;2023-04-01T06:34:20;-4.00;99.90
22081;DHT22;11207;59.512;18.050;2023-04-01T06:37:08;-3.80;99.90
22081;DHT22;11207;59.512;18.050;2023-04-01T06:39:42;-3.80;99.90
22081;DHT22;11207;59.512;18.050;2023-04-01T06:52:27;-3.30;99.90
22081;DHT22;11207;59.512;18.050;2023-04-01T06:55:43;-3.20;99.90
22081;DHT22;11207;59.512;18.050;2023-04-01T06:58:29;-3.10;99.90
22081;DHT22;11207;59.512;18.050;2023-04-01T07:01:03;-2.90;99.90
22081;DHT22;11207;59.512;18.050;2023-04-01T07:06:08;-2.70;99.90
22081;DHT22;11207;59.512;18.050;2023-04-01T07:08:40;-2.60;99.90
22081;DHT22;11207;59.512;18.050;2023-04-01T07:11:21;-2.20;99.90
22081;DHT22;11207;59.512;18.050;2023-04-01T07:13:52;-2.40;99.90
22081;DHT22;11207;59.512;18.050;2023-04-01T07:16:39;-2.30;99.90
22081;DHT22;11207;59.512;18.050;2023-04-01T07:21:50;-2.10;99.90
22081;DHT22;11207;59.512;18.050;2023-04-01T07:24:32;-1.90;99.90
22081;DHT22;11207;59.512;18.050;2023-04-01T07:26:58;-1.80;99.90
22081;DHT22;11207;59.512;18.050;2023-04-01T07:29:25;-1.70;99.90
22081;DHT22;11207;59.512;18.050;2023-04-01T07:38:03;-1.40;99.90
22081;DHT22;11207;59.512;18.050;2023-04-01T07:41:05;-1.30;99.90
22081;DHT22;11207;59.512;18.050;2023-04-01T07:46:39;-1.00;99.90
22081;DHT22;11207;59.512;18.050;2023-04-01T07:49:30;-0.80;99.90
22081;DHT22;11207;59.512;18.050;2023-04-01T08:00:21;-0.30;99.90
22081;DHT22;11207;59.512;18.050;2023-04-01T08:05:25;0.00;99.90
22081;DHT22;11207;59.512;18.050;2023-04-01T08:08:18;0.20;99.90
22081;DHT22;11207;59.512;18.050;2023-04-01T08:10:55;0.30;99.90
22081;DHT22;11207;59.512;18.050;2023-04-01T08:16:35;0.50;99.90
22081;DHT22;11207;59.512;18.050;2023-04-01T08:21:47;0.70;99.90
22081;DHT22;11207;59.512;18.050;2023-04-01T08:27:11;0.90;99.90
22081;DHT22;11207;59.512;18.050;2023-04-01T08:32:44;1.00;99.90
22081;DHT22;11207;59.512;18.050;2023-04-01T08:35:36;1.20;99.90
22081;DHT22;11207;59.512;18.050;2023-04-01T08:38:25;1.20;99.90
22081;DHT22;11207;59.512;18.050;2023-04-01T08:46:19;1.60;99.90
22081;DHT22;11207;59.512;18.050;2023-04-01T09:00:53;2.00;99.90
22081;DHT22;11207;59.512;18.050;2023-04-01T09:03:29;2.20;99.90
22081;DHT22;11207;59.512;18.050;2023-04-01T09:09:23;2.30;99.90
22081;DHT22;11207;59.512;18.050;2023-04-01T09:28:19;2.90;99.90
22081;DHT22;11207;59.512;18.050;2023-04-01T09:34:08;3.00;99.90
22081;DHT22;11207;59.512;18.050;2023-04-01T09:36:50;3.10;99.90
22081;DHT22;11207;59.512;18.050;2023-04-01T09:39:37;3.20;99.90
22081;DHT22;11207;59.512;18.050;2023-04-01T09:42:07;3.30;99.90
22081;DHT22;11207;59.512;18.050;2023-04-01T09:44:58;3.40;99.90
22081;DHT22;11207;59.512;18.050;2023-04-01T09:47:48;3.80;99.90
22081;DHT22;11207;59.512;18.050;2023-04-01T09:56:07;3.70;99.90
22081;DHT22;11207;59.512;18.050;2023-04-01T10:01:42;3.90;99.90
22081;DHT22;11207;59.512;18.050;2023-04-01T10:07:24;4.20;99.90
22081;DHT22;11207;59.512;18.050;2023-04-01T10:10:30;4.20;99.90
22081;DHT22;11207;59.512;18.050;2023-04-01T10:16:03;4.30;99.90
22081;DHT22;11207;59.512;18.050;2023-04-01T10:18:53;4.30;99.90
22081;DHT22;11207;59.512;18.050;2023-04-01T10:21:38;4.30;99.90
22081;DHT22;11207;59.512;18.050;2023-04-01T10:27:14;4.40;99.90
22081;DHT22;11207;59.512;18.050;2023-04-01T10:32:49;4.60;99.90
22081;DHT22;11207;59.512;18.050;2023-04-01T10:51:36;4.90;99.90
22081;DHT22;11207;59.512;18.050;2023-04-01T10:56:59;4.90;99.90
22081;DHT22;11207;59.512;18.050;2023-04-01T10:59:51;5.00;99.90
22081;DHT22;11207;59.512;18.050;2023-04-01T11:08:41;5.10;99.90
22081;DHT22;11207;59.512;18.050;2023-04-01T11:25:20;5.50;97.00
22081;DHT22;11207;59.512;18.050;2023-04-01T11:28:47;5.50;96.60
22081;DHT22;11207;59.512;18.050;2023-04-01T11:33:43;5.70;95.50
22081;DHT22;11207;59.512;18.050;2023-04-01T11:39:13;5.70;97.10
22081;DHT22;11207;59.512;18.050;2023-04-01T11:42:08;5.80;97.20
22081;DHT22;11207;59.512;18.050;2023-04-01T11:44:43;5.80;95.90
22081;DHT22;11207;59.512;18.050;2023-04-01T11:47:45;6.00;95.30
22081;DHT22;11207;59.512;18.050;2023-04-01T11:53:20;5.90;95.60
22081;DHT22;11207;59.512;18.050;2023-04-01T12:10:10;5.80;94.80
22081;DHT22;11207;59.512;18.050;2023-04-01T12:19:10;5.60;94.80
22081;DHT22;11207;59.512;18.050;2023-04-01T12:21:38;5.60;95.20
22081;DHT22;11207;59.512;18.050;2023-04-01T12:33:18;5.60;98.50
22081;DHT22;11207;59.512;18.050;2023-04-01T12:35:51;5.50;97.20
22081;DHT22;11207;59.512;18.050;2023-04-01T12:46:25;5.30;99.20
22081;DHT22;11207;59.512;18.050;2023-04-01T12:51:45;5.20;98.40
22081;DHT22;11207;59.512;18.050;2023-04-01T12:57:40;5.20;97.70
22081;DHT22;11207;59.512;18.050;2023-04-01T13:19:37;4.90;96.30
22081;DHT22;11207;59.512;18.050;2023-04-01T13:22:20;5.00;95.60
22081;DHT22;11207;59.512;18.050;2023-04-01T13:25:19;5.10;97.40
22081;DHT22;11207;59.512;18.050;2023-04-01T13:27:56;5.00;95.90
22081;DHT22;11207;59.512;18.050;2023-04-01T13:31:45;5.10;97.70
22081;DHT22;11207;59.512;18.050;2023-04-01T13:34:04;5.10;98.80
22081;DHT22;11207;59.512;18.050;2023-04-01T13:42:01;5.00;99.70
22081;DHT22;11207;59.512;18.050;2023-04-01T13:44:48;5.00;99.20
22081;DHT22;11207;59.512;18.050;2023-04-01T13:47:47;4.90;99.90
22081;DHT22;11207;59.512;18.050;2023-04-01T13:50:31;4.80;99.90
22081;DHT22;11207;59.512;18.050;2023-04-01T13:53:09;4.90;99.90
22081;DHT22;11207;59.512;18.050;2023-04-01T13:55:55;4.80;99.90
22081;DHT22;11207;59.512;18.050;2023-04-01T14:12:44;4.60;95.70
22081;DHT22;11207;59.512;18.050;2023-04-01T14:26:30;4.50;96.20
22081;DHT22;11207;59.512;18.050;2023-04-01T14:45:36;4.40;97.10
22081;DHT22;11207;59.512;18.050;2023-04-01T14:51:34;4.30;95.70
22081;DHT22;11207;59.512;18.050;2023-04-01T14:57:01;4.30;95.30
22081;DHT22;11207;59.512;18.050;2023-04-01T14:59:31;4.10;94.00
22081;DHT22;11207;59.512;18.050;2023-04-01T15:05:14;4.10;94.70
22081;DHT22;11207;59.512;18.050;2023-04-01T15:08:05;4.20;95.30
22081;DHT22;11207;59.512;18.050;2023-04-01T15:13:49;4.00;95.60
22081;DHT22;11207;59.512;18.050;2023-04-01T15:16:28;4.10;95.60
22081;DHT22;11207;59.512;18.050;2023-04-01T15:30:14;3.90;95.80
22081;DHT22;11207;59.512;18.050;2023-04-01T15:55:59;3.50;97.40
22081;DHT22;11207;59.512;18.050;2023-04-01T16:06:45;3.40;99.80
22081;DHT22;11207;59.512;18.050;2023-04-01T16:09:27;3.40;97.80
22081;DHT22;11207;59.512;18.050;2023-04-01T16:12:15;3.40;98.60
22081;DHT22;11207;59.512;18.050;2023-04-01T16:20:13;3.10;98.20
22081;DHT22;11207;59.512;18.050;2023-04-01T16:23:04;3.10;99.10
22081;DHT22;11207;59.512;18.050;2023-04-01T16:28:36;3.00;99.90
22081;DHT22;11207;59.512;18.050;2023-04-01T16:31:30;2.80;99.90
22081;DHT22;11207;59.512;18.050;2023-04-01T16:36:44;2.90;99.90
22081;DHT22;11207;59.512;18.050;2023-04-01T16:39:36;2.70;99.90
22081;DHT22;11207;59.512;18.050;2023-04-01T16:42:13;2.80;99.40
22081;DHT22;11207;59.512;18.050;2023-04-01T16:47:27;2.70;99.90
22081;DHT22;11207;59.512;18.050;2023-04-01T16:50:22;2.50;99.90
22081;DHT22;11207;59.512;18.050;2023-04-01T16:52:59;2.40;99.90
22081;DHT22;11207;59.512;18.050;2023-04-01T16:59:03;2.30;99.90
22081;DHT22;11207;59.512;18.050;2023-04-01T17:53:19;0.80;99.90
22081;DHT22;11207;59.512;18.050;2023-04-01T17:56:10;0.80;99.90
22081;DHT22;11207;59.512;18.050;2023-04-01T17:59:38;0.80;99.90
22081;DHT22;11207;59.512;18.050;2023-04-01T18:02:23;0.70;99.90
22081;DHT22;11207;59.512;18.050;2023-04-01T19:22:31;-0.70;99.90
22081;DHT22;11207;59.512;18.050;2023-04-01T19:31:07;-0.70;99.90
22081;DHT22;11207;59.512;18.050;2023-04-01T19:34:06;-0.70;99.90
22081;DHT22;11207;59.512;18.050;2023-04-01T19:36:58;-0.80;99.90
22081;DHT22;11207;59.512;18.050;2023-04-01T19:42:07;-0.80;99.90
22081;DHT22;11207;59.512;18.050;2023-04-01T19:45:03;-0.70;99.90
22081;DHT22;11207;59.512;18.050;2023-04-01T19:47:54;-0.90;99.90
22081;DHT22;11207;59.512;18.050;2023-04-01T19:51:03;-0.80;99.90
22081;DHT22;11207;59.512;18.050;2023-04-01T19:53:38;-0.90;99.90
22081;DHT22;11207;59.512;18.050;2023-04-01T19:56:23;-0.90;99.90
22081;DHT22;11207;59.512;18.050;2023-04-01T19:59:02;-1.00;99.90
22081;DHT22;11207;59.512;18.050;2023-04-01T20:02:39;-1.00;99.90
22081;DHT22;11207;59.512;18.050;2023-04-01T20:04:47;-1.10;99.90
22081;DHT22;11207;59.512;18.050;2023-04-01T20:07:24;-1.00;99.90
22081;DHT22;11207;59.512;18.050;2023-04-01T20:10:09;-1.00;99.90
22081;DHT22;11207;59.512;18.050;2023-04-01T20:12:59;-1.10;99.90
22081;DHT22;11207;59.512;18.050;2023-04-01T20:15:41;-1.00;99.90
22081;DHT22;11207;59.512;18.050;2023-04-01T20:18:21;-1.00;99.90
22081;DHT22;11207;59.512;18.050;2023-04-01T20:21:01;-1.10;99.90
22081;DHT22;11207;59.512;18.050;2023-04-01T20:23:39;-1.20;99.90
22081;DHT22;11207;59.512;18.050;2023-04-01T20:26:12;-1.20;99.90
22081;DHT22;11207;59.512;18.050;2023-04-01T20:28:57;-1.20;99.90
22081;DHT22;11207;59.512;18.050;2023-04-01T20:31:36;-1.30;99.90
22081;DHT22;11207;59.512;18.050;2023-04-01T20:34:19;-1.30;99.90
22081;DHT22;11207;59.512;18.050;2023-04-01T20:37:14;-1.30;99.90
22081;DHT22;11207;59.512;18.050;2023-04-01T20:40:02;-1.30;99.90
22081;DHT22;11207;59.512;18.050;2023-04-01T20:45:38;-1.30;99.90
22081;DHT22;11207;59.512;18.050;2023-04-01T20:53:19;-1.50;99.90
22081;DHT22;11207;59.512;18.050;2023-04-01T20:58:53;-1.40;99.90
22081;DHT22;11207;59.512;18.050;2023-04-01T21:04:21;-1.50;99.90
22081;DHT22;11207;59.512;18.050;2023-04-01T21:09:53;-1.60;99.90
22081;DHT22;11207;59.512;18.050;2023-04-01T21:32:27;-2.00;99.90
22081;DHT22;11207;59.512;18.050;2023-04-01T21:35:08;-2.10;99.90
22081;DHT22;11207;59.512;18.050;2023-04-01T21:52:03;-2.30;99.90
22081;DHT22;11207;59.512;18.050;2023-04-01T22:00:09;-2.30;99.90
22081;DHT22;11207;59.512;18.050;2023-04-01T22:08:20;-2.40;99.90
22081;DHT22;11207;59.512;18.050;2023-04-01T22:13:59;-2.40;99.90
22081;DHT22;11207;59.512;18.050;2023-04-01T22:16:45;-2.50;99.90
22081;DHT22;11207;59.512;18.050;2023-04-01T22:24:50;-2.60;99.90
22081;DHT22;11207;59.512;18.050;2023-04-01T22:30:36;-2.80;99.90
22081;DHT22;11207;59.512;18.050;2023-04-01T22:36:00;-2.60;99.90
22081;DHT22;11207;59.512;18.050;2023-04-01T22:38:44;-2.70;99.90
22081;DHT22;11207;59.512;18.050;2023-04-01T22:43:54;-2.80;99.90
22081;DHT22;11207;59.512;18.050;2023-04-01T22:49:23;-2.80;99.90
22081;DHT22;11207;59.512;18.050;2023-04-01T22:52:08;-2.90;99.90
22081;DHT22;11207;59.512;18.050;2023-04-01T22:54:48;-3.00;99.90
22081;DHT22;11207;59.512;18.050;2023-04-01T23:00:16;-3.10;99.90
22081;DHT22;11207;59.512;18.050;2023-04-01T23:03:00;-3.10;99.90
22081;DHT22;11207;59.512;18.050;2023-04-01T23:05:28;-3.20;99.90
22081;DHT22;11207;59.512;18.050;2023-04-01T23:11:00;-3.20;99.90
22081;DHT22;11207;59.512;18.050;2023-04-01T23:13:41;-3.30;99.90
22081;DHT22;11207;59.512;18.050;2023-04-01T23:16:09;-3.30;99.90
22081;DHT22;11207;59.512;18.050;2023-04-01T23:18:46;-3.30;99.90
22081;DHT22;11207;59.512;18.050;2023-04-01T23:21:26;-3.30;99.90
22081;DHT22;11207;59.512;18.050;2023-04-01T23:29:35;-3.30;99.90
22081;DHT22;11207;59.512;18.050;2023-04-01T23:32:03;-3.40;99.90
22081;DHT22;11207;59.512;18.050;2023-04-01T23:34:34;-3.40;99.90
22081;DHT22;11207;59.512;18.050;2023-04-01T23:37:13;-3.40;99.90
22081;DHT22;11207;59.512;18.050;2023-04-01T23:39:50;-3.40;99.90
22081;DHT22;11207;59.512;18.050;2023-04-01T23:42:26;-3.40;99.90
22081;DHT22;11207;59.512;18.050;2023-04-01T23:44:55;-3.40;99.90
22081;DHT22;11207;59.512;18.050;2023-04-01T23:47:38;-3.40;99.90
22081;DHT22;11207;59.512;18.050;2023-04-01T23:50:16;-3.50;99.90
22081;DHT22;11207;59.512;18.050;2023-04-01T23:52:48;-3.30;99.90
22081;DHT22;11207;59.512;18.050;2023-04-01T23:55:28;-3.50;99.90
22081;DHT22;11207;59.512;18.050;2023-04-01T23:58:21;-3.60;99.90
